JBU1704 SKRG-TJSJ
Flight info
| Callsign | JBU1704 |
|---|---|
| Flight time | 2h 13m |
| Altitude | 37000 |
| Route | BIVIG1B BIVIG DCT SERVO UW3 MGN DCT UBLAX UG444 SELAN UM525 VESKA UL221 DUMBI DCT ALTEL UL221 SATOE L221 JOSHE JOSHE3 |
| Aircraft | A320/M-SDE3FGHIRWY/LB1 |
Departure
| Time | 2026-04-23 22:39 |
|---|---|
| Airport | Jose Maria Córdova International Airport (SKRG) |
Arrival
| Time | 2026-04-24 00:53 |
|---|---|
| Airport | Luis Munoz Marin International Airport (TJSJ) |
| Time | Latitude | Longitude | Altitude | Speed | Heading |
|---|---|---|---|---|---|
| 2026-04-23 22:18 | 6.17294 | -75.42775 | 6989 ft | 0 kts | 213° |
| 2026-04-23 22:26 | 6.17298 | -75.42773 | 7016 ft | 3 kts | 213° |
| 2026-04-23 22:26 | 6.17313 | -75.42763 | 7021 ft | 3 kts | 213° |
| 2026-04-23 22:26 | 6.17328 | -75.42753 | 7020 ft | 3 kts | 213° |
| 2026-04-23 22:26 | 6.17344 | -75.42745 | 7021 ft | 3 kts | 184° |
| 2026-04-23 22:27 | 6.17362 | -75.42747 | 7020 ft | 3 kts | 148° |
| 2026-04-23 22:27 | 6.17376 | -75.42758 | 7018 ft | 3 kts | 124° |
| 2026-04-23 22:27 | 6.17383 | -75.42774 | 7020 ft | 3 kts | 104° |
| 2026-04-23 22:27 | 6.17386 | -75.42784 | 7020 ft | 0 kts | 104° |
| 2026-04-23 22:31 | 6.17383 | -75.42773 | 7020 ft | 5 kts | 106° |
| 2026-04-23 22:32 | 6.17360 | -75.42728 | 7018 ft | 10 kts | 123° |
| 2026-04-23 22:32 | 6.17314 | -75.42662 | 7019 ft | 12 kts | 126° |
| 2026-04-23 22:32 | 6.17244 | -75.42619 | 7018 ft | 13 kts | 179° |
| 2026-04-23 22:32 | 6.17153 | -75.42617 | 7019 ft | 14 kts | 177° |
| 2026-04-23 22:33 | 6.17052 | -75.42595 | 7020 ft | 16 kts | 148° |
| 2026-04-23 22:33 | 6.16958 | -75.42539 | 7018 ft | 17 kts | 150° |
| 2026-04-23 22:33 | 6.16851 | -75.42487 | 7015 ft | 18 kts | 171° |
| 2026-04-23 22:33 | 6.16718 | -75.42485 | 7014 ft | 21 kts | 180° |
| 2026-04-23 22:34 | 6.16562 | -75.42484 | 7005 ft | 24 kts | 179° |
| 2026-04-23 22:34 | 6.16382 | -75.42483 | 6992 ft | 28 kts | 179° |
| 2026-04-23 22:34 | 6.16178 | -75.42481 | 6988 ft | 30 kts | 179° |
| 2026-04-23 22:34 | 6.15961 | -75.42480 | 6985 ft | 32 kts | 179° |
| 2026-04-23 22:35 | 6.15735 | -75.42478 | 6982 ft | 33 kts | 180° |
| 2026-04-23 22:35 | 6.15506 | -75.42477 | 6980 ft | 33 kts | 180° |
| 2026-04-23 22:35 | 6.15274 | -75.42475 | 6978 ft | 33 kts | 180° |
| 2026-04-23 22:35 | 6.15071 | -75.42474 | 6977 ft | 22 kts | 180° |
| 2026-04-23 22:36 | 6.14946 | -75.42473 | 6977 ft | 16 kts | 179° |
| 2026-04-23 22:36 | 6.14900 | -75.42430 | 6977 ft | 6 kts | 90° |
| 2026-04-23 22:36 | 6.14900 | -75.42422 | 6977 ft | 0 kts | 89° |
| 2026-04-23 22:37 | 6.14900 | -75.42401 | 6977 ft | 6 kts | 89° |
| 2026-04-23 22:37 | 6.14915 | -75.42346 | 6975 ft | 10 kts | 50° |
| 2026-04-23 22:37 | 6.14975 | -75.42308 | 6977 ft | 10 kts | 24° |
| 2026-04-23 22:38 | 6.15014 | -75.42304 | 6978 ft | 0 kts | 359° |
| 2026-04-23 22:38 | 6.15026 | -75.42304 | 6978 ft | 6 kts | 359° |
| 2026-04-23 22:38 | 6.15292 | -75.42305 | 6980 ft | 75 kts | 359° |
| 2026-04-23 22:39 | 6.16026 | -75.42310 | 6983 ft | 133 kts | 359° |
| 2026-04-23 22:39 | 6.17111 | -75.42318 | 7026 ft | 177 kts | 359° |
| 2026-04-23 22:39 | 6.18371 | -75.42331 | 7718 ft | 182 kts | 1° |
| 2026-04-23 22:39 | 6.19656 | -75.42333 | 8354 ft | 189 kts | 358° |
| 2026-04-23 22:40 | 6.20971 | -75.42262 | 8757 ft | 193 kts | 16° |
| 2026-04-23 22:40 | 6.22022 | -75.41429 | 9025 ft | 203 kts | 63° |
| 2026-04-23 22:40 | 6.22455 | -75.38513 | 9549 ft | 225 kts | 72° |
| 2026-04-23 22:41 | 6.23118 | -75.37053 | 9867 ft | 235 kts | 62° |
| 2026-04-23 22:41 | 6.23868 | -75.35547 | 10180 ft | 246 kts | 63° |
| 2026-04-23 22:41 | 6.24648 | -75.33944 | 10314 ft | 267 kts | 63° |
| 2026-04-23 22:41 | 6.25498 | -75.32195 | 10471 ft | 290 kts | 63° |
| 2026-04-23 22:42 | 6.26411 | -75.30319 | 10810 ft | 304 kts | 63° |
| 2026-04-23 22:42 | 6.27456 | -75.28457 | 11376 ft | 308 kts | 50° |
| 2026-04-23 22:42 | 6.29075 | -75.27102 | 11943 ft | 310 kts | 27° |
| 2026-04-23 22:42 | 6.31027 | -75.26167 | 12556 ft | 312 kts | 22° |
| 2026-04-23 22:43 | 6.33049 | -75.25357 | 13178 ft | 314 kts | 18° |
| 2026-04-23 22:43 | 6.35140 | -75.24642 | 13610 ft | 324 kts | 17° |
| 2026-04-23 22:43 | 6.37365 | -75.23995 | 13718 ft | 341 kts | 7° |
| 2026-04-23 22:43 | 6.39785 | -75.23960 | 13833 ft | 357 kts | 355° |
| 2026-04-23 22:44 | 6.42318 | -75.24109 | 13955 ft | 372 kts | 355° |
| 2026-04-23 22:44 | 6.44928 | -75.24272 | 14297 ft | 379 kts | 356° |
| 2026-04-23 22:44 | 6.47577 | -75.24300 | 14723 ft | 383 kts | 0° |
| 2026-04-23 22:44 | 6.50251 | -75.24164 | 15212 ft | 386 kts | 3° |
| 2026-04-23 22:45 | 6.52943 | -75.23930 | 15687 ft | 390 kts | 4° |
| 2026-04-23 22:45 | 6.55651 | -75.23685 | 16150 ft | 393 kts | 4° |
| 2026-04-23 22:45 | 6.58385 | -75.23439 | 16633 ft | 395 kts | 4° |
| 2026-04-23 22:45 | 6.61133 | -75.23192 | 17111 ft | 398 kts | 4° |
| 2026-04-23 22:46 | 6.63904 | -75.22941 | 17584 ft | 401 kts | 4° |
| 2026-04-23 22:46 | 6.66688 | -75.22689 | 18054 ft | 404 kts | 4° |
| 2026-04-23 22:46 | 6.69498 | -75.22438 | 18484 ft | 406 kts | 4° |
| 2026-04-23 22:46 | 6.72321 | -75.22184 | 18887 ft | 409 kts | 4° |
| 2026-04-23 22:47 | 6.75163 | -75.21928 | 19290 ft | 411 kts | 4° |
| 2026-04-23 22:47 | 6.78022 | -75.21670 | 19695 ft | 414 kts | 4° |
| 2026-04-23 22:47 | 6.80899 | -75.21413 | 20101 ft | 416 kts | 4° |
| 2026-04-23 22:47 | 6.83793 | -75.21152 | 20497 ft | 419 kts | 4° |
| 2026-04-23 22:48 | 6.86703 | -75.20889 | 20882 ft | 421 kts | 4° |
| 2026-04-23 22:48 | 6.89635 | -75.20625 | 21261 ft | 424 kts | 4° |
| 2026-04-23 22:48 | 6.92584 | -75.20359 | 21632 ft | 427 kts | 4° |
| 2026-04-23 22:48 | 6.95546 | -75.20092 | 21996 ft | 429 kts | 4° |
| 2026-04-23 22:49 | 6.98533 | -75.19824 | 22347 ft | 432 kts | 4° |
| 2026-04-23 22:49 | 7.01533 | -75.19557 | 22701 ft | 434 kts | 4° |
| 2026-04-23 22:49 | 7.04544 | -75.19234 | 23051 ft | 437 kts | 6° |
| 2026-04-23 22:49 | 7.07563 | -75.18814 | 23380 ft | 439 kts | 8° |
| 2026-04-23 22:50 | 7.10586 | -75.18332 | 23673 ft | 442 kts | 9° |
| 2026-04-23 22:50 | 7.13626 | -75.17823 | 23947 ft | 444 kts | 9° |
| 2026-04-23 22:50 | 7.16681 | -75.17310 | 24215 ft | 446 kts | 9° |
| 2026-04-23 22:50 | 7.19747 | -75.16812 | 24480 ft | 448 kts | 8° |
| 2026-04-23 22:51 | 7.22833 | -75.16331 | 24752 ft | 450 kts | 8° |
| 2026-04-23 22:51 | 7.25938 | -75.15865 | 25020 ft | 452 kts | 8° |
| 2026-04-23 22:51 | 7.29058 | -75.15402 | 25286 ft | 454 kts | 8° |
| 2026-04-23 22:51 | 7.32189 | -75.14936 | 25553 ft | 456 kts | 8° |
| 2026-04-23 22:52 | 7.35341 | -75.14463 | 25813 ft | 458 kts | 8° |
| 2026-04-23 22:52 | 7.38500 | -75.13987 | 26080 ft | 460 kts | 8° |
| 2026-04-23 22:52 | 7.41675 | -75.13506 | 26339 ft | 462 kts | 8° |
| 2026-04-23 22:52 | 7.44864 | -75.13023 | 26592 ft | 464 kts | 8° |
| 2026-04-23 22:53 | 7.48066 | -75.12538 | 26851 ft | 466 kts | 8° |
| 2026-04-23 22:53 | 7.51282 | -75.12052 | 27113 ft | 468 kts | 8° |
| 2026-04-23 22:53 | 7.54512 | -75.11564 | 27380 ft | 470 kts | 8° |
| 2026-04-23 22:53 | 7.57753 | -75.11071 | 27645 ft | 472 kts | 8° |
| 2026-04-23 22:54 | 7.61007 | -75.10574 | 27897 ft | 474 kts | 8° |
| 2026-04-23 22:54 | 7.64266 | -75.10076 | 28218 ft | 474 kts | 8° |
| 2026-04-23 22:54 | 7.67523 | -75.09580 | 28625 ft | 473 kts | 8° |
| 2026-04-23 22:54 | 7.70730 | -75.09092 | 29012 ft | 472 kts | 8° |
| 2026-04-23 22:55 | 7.73978 | -75.08599 | 29398 ft | 472 kts | 9° |
| 2026-04-23 22:55 | 7.77263 | -75.08098 | 29796 ft | 471 kts | 9° |
| 2026-04-23 22:55 | 7.80465 | -75.07609 | 30131 ft | 471 kts | 9° |
| 2026-04-23 22:55 | 7.83700 | -75.07115 | 30448 ft | 471 kts | 9° |
| 2026-04-23 22:56 | 7.86941 | -75.06616 | 30776 ft | 471 kts | 9° |
| 2026-04-23 22:56 | 7.90178 | -75.06115 | 31103 ft | 470 kts | 9° |
| 2026-04-23 22:56 | 7.93411 | -75.05612 | 31436 ft | 470 kts | 9° |
| 2026-04-23 22:56 | 7.96643 | -75.05111 | 31772 ft | 470 kts | 9° |
| 2026-04-23 22:57 | 7.99875 | -75.04611 | 32110 ft | 470 kts | 9° |
| 2026-04-23 22:57 | 8.03105 | -75.04112 | 32454 ft | 470 kts | 9° |
| 2026-04-23 22:57 | 8.06335 | -75.03613 | 32795 ft | 469 kts | 9° |
| 2026-04-23 22:57 | 8.09563 | -75.03116 | 33142 ft | 469 kts | 9° |
| 2026-04-23 22:58 | 8.12789 | -75.02621 | 33483 ft | 469 kts | 9° |
| 2026-04-23 22:58 | 8.16015 | -75.02124 | 33823 ft | 469 kts | 9° |
| 2026-04-23 22:58 | 8.19243 | -75.01627 | 34108 ft | 469 kts | 9° |
| 2026-04-23 22:58 | 8.22468 | -75.01130 | 34406 ft | 468 kts | 9° |
| 2026-04-23 22:59 | 8.25684 | -75.00635 | 34709 ft | 467 kts | 9° |
| 2026-04-23 22:59 | 8.28900 | -75.00140 | 34995 ft | 467 kts | 9° |
| 2026-04-23 22:59 | 8.32105 | -74.99648 | 35293 ft | 466 kts | 9° |
| 2026-04-23 22:59 | 8.35308 | -74.99156 | 35573 ft | 465 kts | 9° |
| 2026-04-23 23:00 | 8.38505 | -74.98660 | 35859 ft | 465 kts | 9° |
| 2026-04-23 23:00 | 8.41698 | -74.98165 | 36140 ft | 464 kts | 9° |
| 2026-04-23 23:00 | 8.44888 | -74.97670 | 36416 ft | 463 kts | 9° |
| 2026-04-23 23:00 | 8.48070 | -74.97178 | 36686 ft | 463 kts | 9° |
| 2026-04-23 23:01 | 8.51256 | -74.96685 | 36821 ft | 464 kts | 9° |
| 2026-04-23 23:01 | 8.57689 | -74.95694 | 36853 ft | 471 kts | 9° |
| 2026-04-23 23:02 | 8.64171 | -74.94694 | 36851 ft | 472 kts | 9° |
| 2026-04-23 23:02 | 8.70657 | -74.93689 | 36852 ft | 472 kts | 9° |
| 2026-04-23 23:03 | 8.77146 | -74.92683 | 36852 ft | 472 kts | 9° |
| 2026-04-23 23:03 | 8.83593 | -74.91685 | 36857 ft | 472 kts | 9° |
| 2026-04-23 23:04 | 8.90081 | -74.90685 | 36862 ft | 472 kts | 9° |
| 2026-04-23 23:04 | 8.96578 | -74.89680 | 36862 ft | 472 kts | 9° |
| 2026-04-23 23:05 | 9.03072 | -74.88669 | 36867 ft | 472 kts | 9° |
| 2026-04-23 23:05 | 9.09570 | -74.87664 | 36869 ft | 472 kts | 9° |
| 2026-04-23 23:06 | 9.16067 | -74.86658 | 36869 ft | 472 kts | 9° |
| 2026-04-23 23:06 | 9.22560 | -74.85650 | 36873 ft | 472 kts | 9° |
| 2026-04-23 23:07 | 9.28953 | -74.84189 | 36875 ft | 471 kts | 22° |
| 2026-04-23 23:07 | 9.34713 | -74.81089 | 36874 ft | 469 kts | 32° |
| 2026-04-23 23:08 | 9.40320 | -74.77699 | 36875 ft | 470 kts | 31° |
| 2026-04-23 23:08 | 9.45942 | -74.74322 | 36875 ft | 470 kts | 31° |
| 2026-04-23 23:09 | 9.51559 | -74.70932 | 36875 ft | 470 kts | 32° |
| 2026-04-23 23:09 | 9.57178 | -74.67533 | 36873 ft | 470 kts | 31° |
| 2026-04-23 23:10 | 9.61845 | -74.64716 | 36877 ft | 470 kts | 31° |
| 2026-04-23 23:10 | 9.67470 | -74.61327 | 36879 ft | 470 kts | 31° |
| 2026-04-23 23:11 | 9.73097 | -74.57929 | 36886 ft | 471 kts | 31° |
| 2026-04-23 23:11 | 9.78720 | -74.54530 | 36884 ft | 471 kts | 31° |
| 2026-04-23 23:12 | 9.84343 | -74.51127 | 36889 ft | 471 kts | 31° |
| 2026-04-23 23:12 | 9.89966 | -74.47726 | 36889 ft | 471 kts | 31° |
| 2026-04-23 23:13 | 9.95591 | -74.44327 | 36891 ft | 471 kts | 31° |
| 2026-04-23 23:13 | 10.01218 | -74.40926 | 36893 ft | 471 kts | 31° |
| 2026-04-23 23:14 | 10.06841 | -74.37513 | 36896 ft | 471 kts | 31° |
| 2026-04-23 23:14 | 10.12465 | -74.34101 | 36897 ft | 471 kts | 31° |
| 2026-04-23 23:15 | 10.18095 | -74.30690 | 36900 ft | 471 kts | 31° |
| 2026-04-23 23:15 | 10.23729 | -74.27278 | 36900 ft | 472 kts | 31° |
| 2026-04-23 23:16 | 10.29366 | -74.23855 | 36904 ft | 472 kts | 31° |
| 2026-04-23 23:16 | 10.34973 | -74.20454 | 36907 ft | 473 kts | 31° |
| 2026-04-23 23:17 | 10.40618 | -74.17025 | 36914 ft | 473 kts | 31° |
| 2026-04-23 23:17 | 10.46267 | -74.13590 | 36918 ft | 473 kts | 31° |
| 2026-04-23 23:18 | 10.51924 | -74.10154 | 36930 ft | 474 kts | 31° |
| 2026-04-23 23:18 | 10.57586 | -74.06711 | 36945 ft | 474 kts | 31° |
| 2026-04-23 23:19 | 10.63243 | -74.03264 | 36961 ft | 474 kts | 31° |
| 2026-04-23 23:19 | 10.68911 | -73.99820 | 36980 ft | 475 kts | 31° |
| 2026-04-23 23:20 | 10.74584 | -73.96378 | 36999 ft | 475 kts | 31° |
| 2026-04-23 23:20 | 10.80246 | -73.92930 | 37010 ft | 475 kts | 31° |
| 2026-04-23 23:21 | 10.85913 | -73.89466 | 37025 ft | 475 kts | 31° |
| 2026-04-23 23:21 | 10.91586 | -73.86009 | 37022 ft | 476 kts | 32° |
| 2026-04-23 23:22 | 10.97280 | -73.82535 | 37017 ft | 478 kts | 31° |
| 2026-04-23 23:22 | 11.02987 | -73.79057 | 37002 ft | 479 kts | 31° |
| 2026-04-23 23:23 | 11.08711 | -73.75571 | 36988 ft | 480 kts | 32° |
| 2026-04-23 23:23 | 11.14438 | -73.72069 | 36976 ft | 481 kts | 32° |
| 2026-04-23 23:24 | 11.20427 | -73.69080 | 36960 ft | 481 kts | 17° |
| 2026-04-23 23:24 | 11.26998 | -73.67853 | 36939 ft | 481 kts | 6° |
| 2026-04-23 23:25 | 11.33637 | -73.66991 | 36922 ft | 481 kts | 6° |
| 2026-04-23 23:25 | 11.40282 | -73.66112 | 36919 ft | 482 kts | 6° |
| 2026-04-23 23:26 | 11.46932 | -73.65231 | 36909 ft | 482 kts | 6° |
| 2026-04-23 23:26 | 11.53590 | -73.64357 | 36918 ft | 482 kts | 6° |
| 2026-04-23 23:27 | 11.60252 | -73.63493 | 36912 ft | 483 kts | 6° |
| 2026-04-23 23:27 | 11.66918 | -73.62620 | 36916 ft | 483 kts | 6° |
| 2026-04-23 23:28 | 11.73539 | -73.61748 | 36915 ft | 483 kts | 6° |
| 2026-04-23 23:28 | 11.80248 | -73.60871 | 36916 ft | 483 kts | 6° |
| 2026-04-23 23:29 | 11.86873 | -73.60003 | 36918 ft | 483 kts | 6° |
| 2026-04-23 23:29 | 11.93539 | -73.59125 | 36919 ft | 483 kts | 6° |
| 2026-04-23 23:30 | 12.00214 | -73.58251 | 36926 ft | 483 kts | 6° |
| 2026-04-23 23:30 | 12.06886 | -73.57373 | 36929 ft | 484 kts | 6° |
| 2026-04-23 23:31 | 12.13557 | -73.56493 | 36925 ft | 484 kts | 6° |
| 2026-04-23 23:31 | 12.20232 | -73.55617 | 36934 ft | 484 kts | 6° |
| 2026-04-23 23:32 | 12.26910 | -73.54736 | 36930 ft | 484 kts | 6° |
| 2026-04-23 23:32 | 12.33590 | -73.53857 | 36932 ft | 484 kts | 6° |
| 2026-04-23 23:33 | 12.40269 | -73.52976 | 36929 ft | 484 kts | 6° |
| 2026-04-23 23:33 | 12.46950 | -73.52094 | 36935 ft | 484 kts | 6° |
| 2026-04-23 23:34 | 12.53632 | -73.51214 | 36937 ft | 484 kts | 6° |
| 2026-04-23 23:34 | 12.60320 | -73.50333 | 36933 ft | 484 kts | 6° |
| 2026-04-23 23:35 | 12.67002 | -73.49453 | 36935 ft | 485 kts | 6° |
| 2026-04-23 23:35 | 12.73691 | -73.48568 | 36933 ft | 485 kts | 6° |
| 2026-04-23 23:36 | 12.80388 | -73.47685 | 36945 ft | 485 kts | 6° |
| 2026-04-23 23:36 | 12.87080 | -73.46793 | 36935 ft | 485 kts | 6° |
| 2026-04-23 23:37 | 12.93774 | -73.45901 | 36941 ft | 485 kts | 5° |
| 2026-04-23 23:37 | 13.00474 | -73.45019 | 36947 ft | 485 kts | 5° |
| 2026-04-23 23:38 | 13.07172 | -73.44135 | 36943 ft | 485 kts | 5° |
| 2026-04-23 23:38 | 13.13871 | -73.43244 | 36941 ft | 485 kts | 5° |
| 2026-04-23 23:39 | 13.20572 | -73.42357 | 36948 ft | 486 kts | 5° |
| 2026-04-23 23:39 | 13.27273 | -73.41467 | 36951 ft | 486 kts | 5° |
| 2026-04-23 23:40 | 13.33974 | -73.40582 | 36947 ft | 486 kts | 5° |
| 2026-04-23 23:40 | 13.40680 | -73.39690 | 36947 ft | 486 kts | 5° |
| 2026-04-23 23:41 | 13.47384 | -73.38798 | 36952 ft | 486 kts | 5° |
| 2026-04-23 23:41 | 13.54091 | -73.37914 | 36951 ft | 486 kts | 5° |
| 2026-04-23 23:42 | 13.60749 | -73.37035 | 36946 ft | 486 kts | 5° |
| 2026-04-23 23:42 | 13.67458 | -73.36137 | 36958 ft | 486 kts | 5° |
| 2026-04-23 23:43 | 13.74161 | -73.35236 | 36949 ft | 486 kts | 5° |
| 2026-04-23 23:43 | 13.80871 | -73.34340 | 36949 ft | 486 kts | 6° |
| 2026-04-23 23:44 | 13.87331 | -73.32254 | 36950 ft | 491 kts | 27° |
| 2026-04-23 23:44 | 13.92774 | -73.28046 | 36937 ft | 492 kts | 48° |
| 2026-04-23 23:45 | 13.97262 | -73.22673 | 36933 ft | 492 kts | 50° |
| 2026-04-23 23:45 | 14.01685 | -73.17348 | 36932 ft | 493 kts | 50° |
| 2026-04-23 23:46 | 14.06140 | -73.11974 | 36936 ft | 493 kts | 50° |
| 2026-04-23 23:46 | 14.10622 | -73.06551 | 36943 ft | 494 kts | 50° |
| 2026-04-23 23:47 | 14.15052 | -73.01201 | 36949 ft | 494 kts | 50° |
| 2026-04-23 23:47 | 14.19510 | -72.95810 | 36955 ft | 494 kts | 50° |
| 2026-04-23 23:48 | 14.23966 | -72.90405 | 36959 ft | 495 kts | 50° |
| 2026-04-23 23:48 | 14.28425 | -72.85006 | 36953 ft | 495 kts | 50° |
| 2026-04-23 23:49 | 14.35123 | -72.76903 | 36956 ft | 495 kts | 50° |
| 2026-04-23 23:49 | 14.39574 | -72.71486 | 36959 ft | 495 kts | 50° |
| 2026-04-23 23:50 | 14.44045 | -72.66087 | 36959 ft | 495 kts | 49° |
| 2026-04-23 23:50 | 14.48552 | -72.60718 | 36958 ft | 495 kts | 49° |
| 2026-04-23 23:51 | 14.53063 | -72.55345 | 36961 ft | 495 kts | 49° |
| 2026-04-23 23:51 | 14.57542 | -72.49939 | 36963 ft | 495 kts | 50° |
| 2026-04-23 23:52 | 14.61940 | -72.44467 | 36962 ft | 495 kts | 51° |
| 2026-04-23 23:52 | 14.66344 | -72.38990 | 36963 ft | 496 kts | 50° |
| 2026-04-23 23:53 | 14.70766 | -72.33590 | 36965 ft | 496 kts | 50° |
| 2026-04-23 23:53 | 14.75231 | -72.28154 | 36963 ft | 496 kts | 50° |
| 2026-04-23 23:54 | 14.79685 | -72.22713 | 36965 ft | 496 kts | 50° |
| 2026-04-23 23:54 | 14.84131 | -72.17265 | 36967 ft | 496 kts | 50° |
| 2026-04-23 23:55 | 14.88569 | -72.11803 | 36969 ft | 496 kts | 50° |
| 2026-04-23 23:55 | 14.93015 | -72.06349 | 36968 ft | 496 kts | 49° |
| 2026-04-23 23:56 | 14.97463 | -72.00893 | 36968 ft | 496 kts | 49° |
| 2026-04-23 23:56 | 15.01909 | -71.95433 | 36965 ft | 496 kts | 49° |
| 2026-04-23 23:57 | 15.05599 | -71.90887 | 36970 ft | 496 kts | 49° |
| 2026-04-23 23:57 | 15.10043 | -71.85417 | 36970 ft | 496 kts | 49° |
| 2026-04-23 23:58 | 15.14482 | -71.79942 | 36970 ft | 496 kts | 49° |
| 2026-04-23 23:58 | 15.18922 | -71.74465 | 36973 ft | 496 kts | 49° |
| 2026-04-23 23:59 | 15.23356 | -71.68987 | 36973 ft | 497 kts | 49° |
| 2026-04-23 23:59 | 15.27806 | -71.63509 | 36973 ft | 497 kts | 49° |
| 2026-04-24 00:00 | 15.32251 | -71.58029 | 36969 ft | 497 kts | 49° |
| 2026-04-24 00:00 | 15.36694 | -71.52538 | 36967 ft | 497 kts | 49° |
| 2026-04-24 00:01 | 15.41136 | -71.47041 | 36967 ft | 498 kts | 49° |
| 2026-04-24 00:01 | 15.45578 | -71.41536 | 36974 ft | 498 kts | 49° |
| 2026-04-24 00:02 | 15.49990 | -71.36069 | 36979 ft | 498 kts | 49° |
| 2026-04-24 00:02 | 15.54461 | -71.30529 | 36979 ft | 497 kts | 49° |
| 2026-04-24 00:03 | 15.58928 | -71.25120 | 36978 ft | 497 kts | 48° |
| 2026-04-24 00:03 | 15.63476 | -71.19715 | 36980 ft | 497 kts | 48° |
| 2026-04-24 00:04 | 15.68017 | -71.14300 | 36981 ft | 497 kts | 48° |
| 2026-04-24 00:04 | 15.72569 | -71.08833 | 36984 ft | 497 kts | 48° |
| 2026-04-24 00:05 | 15.77074 | -71.03381 | 36983 ft | 497 kts | 49° |
| 2026-04-24 00:05 | 15.81515 | -70.97876 | 36983 ft | 497 kts | 49° |
| 2026-04-24 00:06 | 15.85917 | -70.92402 | 36980 ft | 497 kts | 49° |
| 2026-04-24 00:06 | 15.90396 | -70.86864 | 36983 ft | 497 kts | 49° |
| 2026-04-24 00:07 | 15.94822 | -70.81406 | 36984 ft | 497 kts | 49° |
| 2026-04-24 00:07 | 15.99274 | -70.75905 | 36982 ft | 497 kts | 50° |
| 2026-04-24 00:08 | 16.03164 | -70.69960 | 36977 ft | 498 kts | 57° |
| 2026-04-24 00:08 | 16.06943 | -70.63929 | 36979 ft | 498 kts | 56° |
| 2026-04-24 00:09 | 16.10739 | -70.57895 | 36979 ft | 498 kts | 56° |
| 2026-04-24 00:09 | 16.14524 | -70.51858 | 36980 ft | 499 kts | 56° |
| 2026-04-24 00:10 | 16.18309 | -70.45812 | 36976 ft | 499 kts | 56° |
| 2026-04-24 00:10 | 16.22089 | -70.39764 | 36978 ft | 499 kts | 57° |
| 2026-04-24 00:11 | 16.25870 | -70.33702 | 36980 ft | 499 kts | 57° |
| 2026-04-24 00:11 | 16.29651 | -70.27645 | 36981 ft | 499 kts | 56° |
| 2026-04-24 00:12 | 16.33436 | -70.21586 | 36986 ft | 499 kts | 56° |
| 2026-04-24 00:12 | 16.37222 | -70.15517 | 36982 ft | 500 kts | 56° |
| 2026-04-24 00:13 | 16.41000 | -70.09439 | 36986 ft | 500 kts | 57° |
| 2026-04-24 00:13 | 16.44510 | -70.03185 | 36987 ft | 500 kts | 62° |
| 2026-04-24 00:14 | 16.47723 | -69.96761 | 36991 ft | 500 kts | 63° |
| 2026-04-24 00:14 | 16.50917 | -69.90369 | 36987 ft | 501 kts | 62° |
| 2026-04-24 00:15 | 16.54222 | -69.83985 | 36988 ft | 501 kts | 61° |
| 2026-04-24 00:15 | 16.57570 | -69.77620 | 36987 ft | 501 kts | 61° |
| 2026-04-24 00:16 | 16.60929 | -69.71191 | 36988 ft | 501 kts | 61° |
| 2026-04-24 00:16 | 16.64224 | -69.64837 | 36988 ft | 502 kts | 61° |
| 2026-04-24 00:17 | 16.67535 | -69.58429 | 36991 ft | 502 kts | 61° |
| 2026-04-24 00:17 | 16.70851 | -69.52017 | 36991 ft | 502 kts | 61° |
| 2026-04-24 00:18 | 16.74174 | -69.45610 | 36993 ft | 502 kts | 61° |
| 2026-04-24 00:18 | 16.77495 | -69.39187 | 36992 ft | 503 kts | 61° |
| 2026-04-24 00:19 | 16.80806 | -69.32763 | 36994 ft | 503 kts | 61° |
| 2026-04-24 00:19 | 16.84122 | -69.26331 | 36994 ft | 503 kts | 61° |
| 2026-04-24 00:20 | 16.87443 | -69.19901 | 36994 ft | 503 kts | 61° |
| 2026-04-24 00:20 | 16.90766 | -69.13462 | 36996 ft | 504 kts | 61° |
| 2026-04-24 00:21 | 16.94097 | -69.07026 | 36993 ft | 504 kts | 61° |
| 2026-04-24 00:21 | 16.97422 | -69.00582 | 36995 ft | 504 kts | 61° |
| 2026-04-24 00:22 | 17.00753 | -68.94138 | 36999 ft | 504 kts | 61° |
| 2026-04-24 00:22 | 17.04076 | -68.87681 | 36999 ft | 504 kts | 61° |
| 2026-04-24 00:23 | 17.07392 | -68.81222 | 37001 ft | 505 kts | 61° |
| 2026-04-24 00:23 | 17.10725 | -68.74758 | 36999 ft | 505 kts | 61° |
| 2026-04-24 00:24 | 17.14053 | -68.68295 | 36999 ft | 505 kts | 61° |
| 2026-04-24 00:24 | 17.17378 | -68.61814 | 36996 ft | 506 kts | 61° |
| 2026-04-24 00:25 | 17.20701 | -68.55330 | 36998 ft | 506 kts | 61° |
| 2026-04-24 00:25 | 17.24022 | -68.48836 | 36996 ft | 506 kts | 61° |
| 2026-04-24 00:26 | 17.27347 | -68.42339 | 37000 ft | 507 kts | 61° |
| 2026-04-24 00:26 | 17.30680 | -68.35837 | 36697 ft | 508 kts | 61° |
| 2026-04-24 00:27 | 17.32344 | -68.32582 | 36251 ft | 508 kts | 61° |
| 2026-04-24 00:27 | 17.33985 | -68.29362 | 35825 ft | 508 kts | 60° |
| 2026-04-24 00:27 | 17.35650 | -68.26094 | 35397 ft | 509 kts | 60° |
| 2026-04-24 00:27 | 17.37314 | -68.22829 | 34979 ft | 509 kts | 60° |
| 2026-04-24 00:28 | 17.38984 | -68.19554 | 34569 ft | 510 kts | 60° |
| 2026-04-24 00:28 | 17.40659 | -68.16272 | 34155 ft | 511 kts | 59° |
| 2026-04-24 00:28 | 17.42336 | -68.12987 | 33717 ft | 512 kts | 59° |
| 2026-04-24 00:28 | 17.44011 | -68.09698 | 33253 ft | 512 kts | 60° |
| 2026-04-24 00:29 | 17.45686 | -68.06409 | 32812 ft | 512 kts | 60° |
| 2026-04-24 00:29 | 17.47365 | -68.03117 | 32367 ft | 512 kts | 60° |
| 2026-04-24 00:29 | 17.49038 | -67.99831 | 31926 ft | 511 kts | 60° |
| 2026-04-24 00:29 | 17.50711 | -67.96543 | 31498 ft | 511 kts | 60° |
| 2026-04-24 00:30 | 17.52379 | -67.93258 | 31069 ft | 511 kts | 60° |
| 2026-04-24 00:30 | 17.54049 | -67.89967 | 30651 ft | 511 kts | 60° |
| 2026-04-24 00:30 | 17.55713 | -67.86682 | 30234 ft | 510 kts | 61° |
| 2026-04-24 00:30 | 17.57373 | -67.83397 | 29788 ft | 510 kts | 61° |
| 2026-04-24 00:31 | 17.59033 | -67.80113 | 29309 ft | 509 kts | 61° |
| 2026-04-24 00:31 | 17.60691 | -67.76841 | 28841 ft | 506 kts | 60° |
| 2026-04-24 00:31 | 17.62335 | -67.73597 | 28379 ft | 503 kts | 60° |
| 2026-04-24 00:31 | 17.63970 | -67.70371 | 27920 ft | 499 kts | 60° |
| 2026-04-24 00:32 | 17.65592 | -67.67164 | 27474 ft | 496 kts | 61° |
| 2026-04-24 00:32 | 17.67198 | -67.63983 | 27029 ft | 492 kts | 60° |
| 2026-04-24 00:32 | 17.68795 | -67.60823 | 26599 ft | 489 kts | 60° |
| 2026-04-24 00:32 | 17.70381 | -67.57685 | 26177 ft | 485 kts | 60° |
| 2026-04-24 00:33 | 17.71956 | -67.54567 | 25750 ft | 482 kts | 60° |
| 2026-04-24 00:33 | 17.73520 | -67.51470 | 25337 ft | 479 kts | 60° |
| 2026-04-24 00:33 | 17.75072 | -67.48391 | 24925 ft | 476 kts | 60° |
| 2026-04-24 00:33 | 17.76612 | -67.45329 | 24527 ft | 473 kts | 60° |
| 2026-04-24 00:34 | 17.78141 | -67.42288 | 24124 ft | 470 kts | 60° |
| 2026-04-24 00:34 | 17.79661 | -67.39267 | 23735 ft | 467 kts | 60° |
| 2026-04-24 00:34 | 17.81174 | -67.36267 | 23295 ft | 464 kts | 60° |
| 2026-04-24 00:34 | 17.82678 | -67.33287 | 22832 ft | 460 kts | 60° |
| 2026-04-24 00:35 | 17.84167 | -67.30328 | 22375 ft | 456 kts | 60° |
| 2026-04-24 00:35 | 17.85639 | -67.27397 | 21924 ft | 452 kts | 61° |
| 2026-04-24 00:35 | 17.87098 | -67.24494 | 21487 ft | 448 kts | 61° |
| 2026-04-24 00:35 | 17.88545 | -67.21616 | 21041 ft | 444 kts | 61° |
| 2026-04-24 00:36 | 17.89982 | -67.18762 | 20617 ft | 440 kts | 61° |
| 2026-04-24 00:36 | 17.91403 | -67.15930 | 20196 ft | 437 kts | 61° |
| 2026-04-24 00:36 | 17.92810 | -67.13120 | 19778 ft | 433 kts | 61° |
| 2026-04-24 00:36 | 17.94205 | -67.10333 | 19370 ft | 429 kts | 61° |
| 2026-04-24 00:37 | 17.95589 | -67.07569 | 18957 ft | 426 kts | 61° |
| 2026-04-24 00:37 | 17.96961 | -67.04824 | 18560 ft | 423 kts | 61° |
| 2026-04-24 00:37 | 17.98321 | -67.02102 | 18138 ft | 419 kts | 61° |
| 2026-04-24 00:37 | 17.99669 | -66.99408 | 17698 ft | 415 kts | 61° |
| 2026-04-24 00:38 | 18.01009 | -66.96735 | 17327 ft | 412 kts | 61° |
| 2026-04-24 00:38 | 18.02333 | -66.94094 | 16947 ft | 405 kts | 61° |
| 2026-04-24 00:38 | 18.03625 | -66.91506 | 16571 ft | 393 kts | 62° |
| 2026-04-24 00:38 | 18.04860 | -66.89027 | 16200 ft | 373 kts | 62° |
| 2026-04-24 00:39 | 18.06037 | -66.86669 | 15843 ft | 356 kts | 62° |
| 2026-04-24 00:39 | 18.07165 | -66.84411 | 15482 ft | 342 kts | 62° |
| 2026-04-24 00:39 | 18.08256 | -66.82228 | 15134 ft | 335 kts | 62° |
| 2026-04-24 00:39 | 18.09336 | -66.80062 | 14784 ft | 334 kts | 62° |
| 2026-04-24 00:40 | 18.10397 | -66.77932 | 14433 ft | 333 kts | 62° |
| 2026-04-24 00:40 | 18.11471 | -66.75779 | 14092 ft | 332 kts | 62° |
| 2026-04-24 00:40 | 18.12540 | -66.73637 | 13751 ft | 330 kts | 62° |
| 2026-04-24 00:40 | 18.13603 | -66.71499 | 13369 ft | 329 kts | 62° |
| 2026-04-24 00:41 | 18.14653 | -66.69382 | 12984 ft | 324 kts | 62° |
| 2026-04-24 00:41 | 18.15687 | -66.67302 | 12606 ft | 318 kts | 62° |
| 2026-04-24 00:41 | 18.16704 | -66.65263 | 12237 ft | 313 kts | 62° |
| 2026-04-24 00:41 | 18.17709 | -66.63252 | 11869 ft | 309 kts | 62° |
| 2026-04-24 00:42 | 18.18704 | -66.61253 | 11508 ft | 308 kts | 62° |
| 2026-04-24 00:42 | 18.19697 | -66.59256 | 11158 ft | 308 kts | 62° |
| 2026-04-24 00:42 | 18.20688 | -66.57258 | 10814 ft | 308 kts | 62° |
| 2026-04-24 00:42 | 18.21678 | -66.55262 | 10455 ft | 308 kts | 62° |
| 2026-04-24 00:43 | 18.22666 | -66.53279 | 10189 ft | 304 kts | 61° |
| 2026-04-24 00:43 | 18.23907 | -66.51511 | 9941 ft | 299 kts | 48° |
| 2026-04-24 00:43 | 18.25315 | -66.49912 | 9637 ft | 296 kts | 46° |
| 2026-04-24 00:43 | 18.26726 | -66.48343 | 9335 ft | 294 kts | 46° |
| 2026-04-24 00:44 | 18.28125 | -66.46792 | 9039 ft | 291 kts | 46° |
| 2026-04-24 00:44 | 18.29516 | -66.45253 | 8743 ft | 289 kts | 46° |
| 2026-04-24 00:44 | 18.30891 | -66.43733 | 8446 ft | 283 kts | 46° |
| 2026-04-24 00:44 | 18.32234 | -66.42250 | 8143 ft | 277 kts | 46° |
| 2026-04-24 00:45 | 18.33107 | -66.41287 | 7935 ft | 271 kts | 46° |
| 2026-04-24 00:45 | 18.34387 | -66.39877 | 7619 ft | 262 kts | 46° |
| 2026-04-24 00:45 | 18.35629 | -66.38512 | 7311 ft | 254 kts | 46° |
| 2026-04-24 00:45 | 18.36836 | -66.37189 | 7002 ft | 246 kts | 46° |
| 2026-04-24 00:46 | 18.38007 | -66.35910 | 6701 ft | 239 kts | 46° |
| 2026-04-24 00:46 | 18.39146 | -66.34670 | 6361 ft | 233 kts | 46° |
| 2026-04-24 00:46 | 18.40261 | -66.33457 | 5976 ft | 228 kts | 46° |
| 2026-04-24 00:46 | 18.41364 | -66.32260 | 5614 ft | 228 kts | 46° |
| 2026-04-24 00:47 | 18.42466 | -66.31047 | 5251 ft | 230 kts | 51° |
| 2026-04-24 00:47 | 18.43233 | -66.29576 | 4886 ft | 232 kts | 75° |
| 2026-04-24 00:47 | 18.43403 | -66.27886 | 4518 ft | 234 kts | 90° |
| 2026-04-24 00:47 | 18.43397 | -66.26167 | 4195 ft | 234 kts | 90° |
| 2026-04-24 00:48 | 18.43393 | -66.24458 | 3942 ft | 232 kts | 90° |
| 2026-04-24 00:48 | 18.43391 | -66.22778 | 3694 ft | 228 kts | 90° |
| 2026-04-24 00:48 | 18.43389 | -66.21138 | 3443 ft | 219 kts | 90° |
| 2026-04-24 00:48 | 18.43387 | -66.19573 | 3245 ft | 209 kts | 90° |
| 2026-04-24 00:49 | 18.43385 | -66.18053 | 3016 ft | 206 kts | 90° |
| 2026-04-24 00:49 | 18.43383 | -66.16545 | 2761 ft | 205 kts | 90° |
| 2026-04-24 00:49 | 18.43381 | -66.15045 | 2498 ft | 203 kts | 91° |
| 2026-04-24 00:49 | 18.43379 | -66.13596 | 2238 ft | 193 kts | 90° |
| 2026-04-24 00:50 | 18.43377 | -66.12228 | 2009 ft | 181 kts | 90° |
| 2026-04-24 00:50 | 18.43374 | -66.10924 | 1769 ft | 175 kts | 90° |
| 2026-04-24 00:50 | 18.43372 | -66.09665 | 1536 ft | 167 kts | 90° |
| 2026-04-24 00:50 | 18.43370 | -66.08496 | 1329 ft | 154 kts | 90° |
| 2026-04-24 00:51 | 18.43368 | -66.07418 | 1145 ft | 143 kts | 91° |
| 2026-04-24 00:51 | 18.43366 | -66.06385 | 968 ft | 139 kts | 91° |
| 2026-04-24 00:51 | 18.43365 | -66.05378 | 796 ft | 137 kts | 90° |
| 2026-04-24 00:51 | 18.43363 | -66.04381 | 626 ft | 135 kts | 90° |
| 2026-04-24 00:52 | 18.43361 | -66.03396 | 432 ft | 135 kts | 89° |
| 2026-04-24 00:52 | 18.43360 | -66.02414 | 263 ft | 134 kts | 90° |
| 2026-04-24 00:52 | 18.43358 | -66.01437 | 67 ft | 133 kts | 90° |
| 2026-04-24 00:52 | 18.43354 | -66.00519 | 17 ft | 105 kts | 90° |
| 2026-04-24 00:53 | 18.43353 | -66.00045 | 17 ft | 34 kts | 88° |
| 2026-04-24 00:53 | 18.43430 | -65.99907 | 18 ft | 15 kts | 31° |
| 2026-04-24 00:53 | 18.43465 | -65.99982 | 17 ft | 15 kts | 268° |
| 2026-04-24 00:53 | 18.43465 | -66.00099 | 17 ft | 17 kts | 270° |
| 2026-04-24 00:54 | 18.43465 | -66.00193 | 17 ft | 7 kts | 270° |
| 2026-04-24 00:54 | 18.43465 | -66.00254 | 17 ft | 9 kts | 270° |
| 2026-04-24 00:54 | 18.43465 | -66.00276 | 17 ft | 1 kts | 270° |
| 2026-04-24 00:54 | 18.43467 | -66.00298 | 17 ft | 5 kts | 283° |
| 2026-04-24 00:55 | 18.43492 | -66.00330 | 17 ft | 7 kts | 322° |
| 2026-04-24 00:55 | 18.43543 | -66.00333 | 17 ft | 9 kts | 23° |
| 2026-04-24 00:55 | 18.43589 | -66.00327 | 17 ft | 5 kts | 345° |
| 2026-04-24 00:55 | 18.43609 | -66.00333 | 17 ft | 1 kts | 343° |
| 2026-04-24 00:56 | 18.43611 | -66.00334 | 17 ft | 0 kts | 343° |